Time;durP1;ratioP1;P1;durP2;ratioP2;P2;SDS_P1;SDS_P2;PMS_P1;PMS_P2;Temp;Humidity;BMP_temperature;BMP_pressure;BME280_temperature;BME280_humidity;BME280_pressure;Samples;Min_cycle;Max_cycle;Signal;HPM_P1;HPM_P2
2022/04/20 00:00:36;;;;;;;0.10;0.10;;;10.80;52.70;;;;;;5027334;28;20025;-74
2022/04/20 00:03:03;;;;;;;0.45;0.43;;;10.70;53.10;;;;;;5028562;28;20013;-75
2022/04/20 00:05:33;;;;;;;0.10;0.10;;;10.70;53.50;;;;;;5028622;28;20037;-73
2022/04/20 00:08:02;;;;;;;0.10;0.10;;;10.60;53.80;;;;;;5030782;28;20028;-72
2022/04/20 00:10:29;;;;;;;0.10;0.10;;;10.60;54.00;;;;;;5029916;28;20029;-72
2022/04/20 00:12:55;;;;;;;0.10;0.10;;;10.50;54.40;;;;;;5032376;28;20040;-72
2022/04/20 00:15:20;;;;;;;0.10;0.10;;;10.50;54.60;;;;;;5030902;28;20057;-75
2022/04/20 00:17:46;;;;;;;0.10;0.10;;;10.50;55.00;;;;;;5030490;28;20029;-72
2022/04/20 00:20:12;;;;;;;0.10;0.10;;;10.40;55.30;;;;;;5031901;28;20036;-73
2022/04/20 00:22:37;;;;;;;0.10;0.10;;;10.40;55.60;;;;;;5032430;28;20044;-72
2022/04/20 00:25:04;;;;;;;0.10;0.10;;;10.30;56.50;;;;;;5031219;28;20124;-73
2022/04/20 00:27:33;;;;;;;0.10;0.10;;;10.30;56.20;;;;;;5031574;28;20048;-72
2022/04/20 00:29:59;;;;;;;0.10;0.10;;;10.40;56.90;;;;;;5032231;28;20022;-73
2022/04/20 00:32:24;;;;;;;0.10;0.10;;;10.30;56.70;;;;;;5032552;28;20075;-74
2022/04/20 00:34:50;;;;;;;0.10;0.10;;;10.30;57.10;;;;;;5029190;28;20033;-74
2022/04/20 00:37:16;;;;;;;0.10;0.10;;;10.20;57.50;;;;;;5031554;28;20032;-72
2022/04/20 00:39:42;;;;;;;0.10;0.10;;;10.20;57.80;;;;;;5032140;28;20108;-73
2022/04/20 00:42:08;;;;;;;0.10;0.10;;;10.10;58.70;;;;;;5031006;28;20033;-73
2022/04/20 00:44:34;;;;;;;0.10;0.10;;;10.10;58.60;;;;;;5029606;28;20026;-73
2022/04/20 00:47:01;;;;;;;0.10;0.10;;;10.10;58.80;;;;;;5031790;28;20040;-72
2022/04/20 00:49:29;;;;;;;0.10;0.10;;;10.00;59.20;;;;;;5032014;28;20022;-73
2022/04/20 00:51:57;;;;;;;0.10;0.10;;;10.00;59.50;;;;;;5030888;28;20014;-71
2022/04/20 00:54:23;;;;;;;0.10;0.10;;;10.00;60.00;;;;;;5031196;28;20060;-72
2022/04/20 00:56:49;;;;;;;0.10;0.10;;;9.90;61.60;;;;;;5030600;28;20036;-72
2022/04/20 00:59:20;;;;;;;0.10;0.10;;;9.90;62.20;;;;;;5031414;28;20029;-74
2022/04/20 01:01:46;;;;;;;0.10;0.10;;;9.90;62.60;;;;;;5031749;28;20040;-74
2022/04/20 01:04:12;;;;;;;0.10;0.10;;;9.90;63.90;;;;;;5030425;28;20018;-72
2022/04/20 01:06:37;;;;;;;0.75;0.75;;;9.90;64.30;;;;;;5031532;28;20052;-73
2022/04/20 01:09:03;;;;;;;0.10;0.10;;;9.90;64.90;;;;;;5032384;28;20061;-72
2022/04/20 01:11:29;;;;;;;0.10;0.10;;;9.90;66.00;;;;;;5027154;28;20045;-73
2022/04/20 01:13:55;;;;;;;0.10;0.10;;;10.00;65.80;;;;;;5031854;28;20030;-74
2022/04/20 01:16:21;;;;;;;0.10;0.10;;;9.80;67.40;;;;;;5031266;28;20055;-73
2022/04/20 01:18:49;;;;;;;0.10;0.10;;;9.80;68.20;;;;;;5031977;28;20045;-73
2022/04/20 01:21:15;;;;;;;0.10;0.10;;;9.80;68.80;;;;;;5030039;28;20560;-74
2022/04/20 01:23:40;;;;;;;0.10;0.10;;;9.70;69.80;;;;;;5032595;28;20095;-73
2022/04/20 01:26:08;;;;;;;0.20;0.20;;;9.70;71.00;;;;;;5032704;28;20385;-72
2022/04/20 01:28:34;;;;;;;3.83;2.63;;;9.70;72.00;;;;;;5033459;28;20186;-71
2022/04/20 01:31:00;;;;;;;0.10;0.10;;;9.70;73.00;;;;;;5029915;28;20040;-73
2022/04/20 01:33:26;;;;;;;0.10;0.10;;;9.80;74.00;;;;;;5031432;28;20412;-73
2022/04/20 01:35:51;;;;;;;0.10;0.10;;;9.60;75.40;;;;;;5030111;28;20025;-72
2022/04/20 01:38:17;;;;;;;0.10;0.10;;;9.60;76.80;;;;;;5031401;28;20044;-72
2022/04/20 01:40:43;;;;;;;0.10;0.10;;;9.50;78.30;;;;;;5030672;28;20032;-72
2022/04/20 01:43:09;;;;;;;0.10;0.10;;;9.50;79.40;;;;;;5029771;28;20048;-73
2022/04/20 01:45:34;;;;;;;0.10;0.10;;;9.50;80.90;;;;;;5028764;28;20499;-71
2022/04/20 01:48:00;;;;;;;0.10;0.10;;;9.40;82.10;;;;;;5030875;28;20496;-72
2022/04/20 01:50:25;;;;;;;0.13;0.13;;;9.40;84.00;;;;;;5030089;28;20040;-72
2022/04/20 01:52:51;;;;;;;0.10;0.10;;;9.40;86.30;;;;;;5027575;28;20025;-74
2022/04/20 01:55:17;;;;;;;0.10;0.10;;;9.40;88.00;;;;;;5029518;28;20032;-73
2022/04/20 01:57:43;;;;;;;0.10;0.10;;;9.40;89.20;;;;;;5030915;28;20035;-73
2022/04/20 02:00:10;;;;;;;0.10;0.10;;;9.30;90.30;;;;;;5027148;28;20108;-73
2022/04/20 02:02:38;;;;;;;1.95;1.48;;;9.30;91.40;;;;;;5026818;28;20041;-74
2022/04/20 02:05:09;;;;;;;0.10;0.10;;;9.20;91.80;;;;;;5029832;28;20033;-74
2022/04/20 02:07:35;;;;;;;0.13;0.13;;;9.20;92.80;;;;;;5031183;28;20037;-74
2022/04/20 02:10:02;;;;;;;0.10;0.10;;;9.10;93.70;;;;;;5027251;28;20029;-73
2022/04/20 02:12:28;;;;;;;0.10;0.10;;;9.10;95.10;;;;;;5027502;28;20547;-73
2022/04/20 02:14:54;;;;;;;0.52;0.47;;;9.20;95.30;;;;;;5031153;28;20037;-72
2022/04/20 02:17:19;;;;;;;0.10;0.10;;;9.10;96.50;;;;;;5030587;28;20018;-74
2022/04/20 02:19:45;;;;;;;0.10;0.10;;;9.10;97.00;;;;;;5020734;28;20034;-74
2022/04/20 02:22:11;;;;;;;0.75;0.75;;;9.10;97.40;;;;;;5027310;28;20040;-74
2022/04/20 02:24:37;;;;;;;0.10;0.10;;;8.90;97.90;;;;;;5033474;28;20037;-74
2022/04/20 02:27:03;;;;;;;0.10;0.10;;;8.90;98.90;;;;;;5032350;28;20021;-76
2022/04/20 02:29:28;;;;;;;0.10;0.10;;;8.90;99.70;;;;;;5028186;28;20477;-74
2022/04/20 02:31:54;;;;;;;0.10;0.10;;;8.90;99.90;;;;;;5028490;28;20028;-75
2022/04/20 02:34:20;;;;;;;0.10;0.10;;;8.90;99.90;;;;;;5030291;28;20078;-75
2022/04/20 02:36:46;;;;;;;0.10;0.10;;;8.80;99.90;;;;;;5014448;28;20485;-73
2022/04/20 02:39:12;;;;;;;0.20;0.20;;;9.20;99.90;;;;;;5028827;28;20480;-74
2022/04/20 02:41:40;;;;;;;0.10;0.10;;;8.70;99.90;;;;;;5025967;28;20029;-74
2022/04/20 02:44:06;;;;;;;0.10;0.10;;;8.70;99.90;;;;;;5025932;28;20067;-74
2022/04/20 02:46:32;;;;;;;0.17;0.17;;;8.70;99.90;;;;;;5034508;28;20029;-74
2022/04/20 02:48:58;;;;;;;0.10;0.10;;;8.70;99.90;;;;;;5028708;28;20833;-74
2022/04/20 02:51:23;;;;;;;0.55;0.55;;;8.70;99.90;;;;;;5028358;28;20025;-73
2022/04/20 02:53:49;;;;;;;0.10;0.10;;;8.70;99.90;;;;;;5028405;28;20033;-72
2022/04/20 02:56:14;;;;;;;0.10;0.10;;;8.70;99.90;;;;;;5026346;28;20022;-72
2022/04/20 02:58:40;;;;;;;0.10;0.10;;;8.70;99.90;;;;;;5024656;28;20026;-72
2022/04/20 03:01:06;;;;;;;0.10;0.10;;;8.40;99.90;;;;;;5031015;28;20427;-74
2022/04/20 03:03:32;;;;;;;0.10;0.10;;;8.60;99.90;;;;;;5027748;28;20082;-74
2022/04/20 03:05:58;;;;;;;0.10;0.10;;;8.60;99.90;;;;;;5019129;28;20030;-73
2022/04/20 03:08:24;;;;;;;0.10;0.10;;;8.60;99.90;;;;;;5029663;28;20079;-73
2022/04/20 03:10:51;;;;;;;0.10;0.10;;;8.60;99.90;;;;;;5026025;28;22151;-72
2022/04/20 03:13:17;;;;;;;0.10;0.10;;;8.60;99.90;;;;;;5028409;28;20100;-73
2022/04/20 03:15:43;;;;;;;0.10;0.10;;;8.50;99.90;;;;;;5031566;28;20033;-73
2022/04/20 03:18:09;;;;;;;0.10;0.10;;;8.50;99.90;;;;;;5024902;28;20018;-73
2022/04/20 03:20:34;;;;;;;0.10;0.10;;;8.50;99.90;;;;;;5022602;28;20123;-72
2022/04/20 03:23:00;;;;;;;0.10;0.10;;;8.40;99.90;;;;;;5032477;28;20033;-73
2022/04/20 03:25:26;;;;;;;0.10;0.10;;;8.40;99.90;;;;;;5028678;28;20577;-73
2022/04/20 03:27:51;;;;;;;0.10;0.10;;;8.30;99.90;;;;;;5019545;28;20048;-73
2022/04/20 03:30:17;;;;;;;0.20;0.20;;;8.30;99.90;;;;;;5023326;28;20033;-74
2022/04/20 03:32:43;;;;;;;0.10;0.10;;;8.30;99.90;;;;;;5033362;28;20485;-73
2022/04/20 03:35:09;;;;;;;0.10;0.10;;;8.30;99.90;;;;;;5030715;28;20468;-74
2022/04/20 03:37:36;;;;;;;2.05;1.95;;;8.30;99.90;;;;;;5029059;28;20052;-73
2022/04/20 03:40:02;;;;;;;0.10;0.10;;;8.20;99.90;;;;;;5022073;28;20030;-73
2022/04/20 03:42:28;;;;;;;0.10;0.10;;;8.20;99.90;;;;;;5029156;28;20025;-74
2022/04/20 03:44:53;;;;;;;0.10;0.10;;;8.30;99.90;;;;;;5029182;28;20037;-74
2022/04/20 03:47:19;;;;;;;0.10;0.10;;;8.20;99.90;;;;;;5032368;28;20105;-73
2022/04/20 03:49:44;;;;;;;0.10;0.10;;;8.10;99.90;;;;;;5029198;28;20029;-74
2022/04/20 03:52:10;;;;;;;0.20;0.20;;;8.10;99.90;;;;;;5026840;28;20037;-72
2022/04/20 03:54:36;;;;;;;0.10;0.10;;;8.00;99.90;;;;;;5030200;28;20480;-73
2022/04/20 03:57:07;;;;;;;0.10;0.10;;;8.00;99.90;;;;;;5027754;28;20021;-74
2022/04/20 03:59:34;;;;;;;0.10;0.10;;;8.00;99.90;;;;;;5027306;28;20029;-73
2022/04/20 04:02:00;;;;;;;0.10;0.10;;;8.10;99.90;;;;;;5029679;28;20029;-74
2022/04/20 04:07:01;;;;;;;0.10;0.10;;;8.00;99.90;;;;;;5009740;28;20057;-68
2022/04/20 04:09:27;;;;;;;0.10;0.10;;;7.90;99.90;;;;;;5006807;28;20034;-69
2022/04/20 04:11:53;;;;;;;0.15;0.15;;;7.90;99.90;;;;;;5008643;28;20040;-68
2022/04/20 04:14:19;;;;;;;0.20;0.20;;;7.90;99.90;;;;;;5007683;28;20022;-68
2022/04/20 04:16:45;;;;;;;0.10;0.10;;;7.90;99.90;;;;;;5005550;28;20504;-69
2022/04/20 04:19:11;;;;;;;0.10;0.10;;;7.90;99.90;;;;;;5007139;28;20029;-70
2022/04/20 04:21:38;;;;;;;0.10;0.10;;;7.90;99.90;;;;;;5004729;28;20026;-70
2022/04/20 04:24:05;;;;;;;0.30;0.30;;;7.80;99.90;;;;;;5000738;28;20167;-70
2022/04/20 04:26:31;;;;;;;0.10;0.10;;;7.80;99.90;;;;;;5001062;28;20026;-70
2022/04/20 04:28:58;;;;;;;0.10;0.10;;;7.70;99.90;;;;;;5002107;28;20053;-69
2022/04/20 04:31:27;;;;;;;0.10;0.10;;;7.70;99.90;;;;;;5005190;28;20389;-69
2022/04/20 04:33:52;;;;;;;0.10;0.10;;;7.70;99.90;;;;;;5006805;28;20033;-68
2022/04/20 04:36:18;;;;;;;0.10;0.10;;;7.60;99.90;;;;;;5007256;28;20033;-67
2022/04/20 04:38:44;;;;;;;0.10;0.10;;;7.50;99.90;;;;;;5006161;28;20446;-66
2022/04/20 04:41:10;;;;;;;0.10;0.10;;;7.40;99.90;;;;;;5004163;28;20450;-68
2022/04/20 04:43:36;;;;;;;0.10;0.10;;;7.60;99.90;;;;;;5008685;28;20088;-69
2022/04/20 04:48:48;;;;;;;0.52;0.52;;;7.50;99.90;;;;;;5004199;28;20028;-69
2022/04/20 04:51:15;;;;;;;0.10;0.10;;;7.50;99.90;;;;;;4999609;28;20030;-68
2022/04/20 04:53:41;;;;;;;0.10;0.10;;;7.50;99.90;;;;;;5011485;28;20636;-69
2022/04/20 04:56:07;;;;;;;0.20;0.20;;;7.60;99.90;;;;;;5005903;28;20088;-69
2022/04/20 04:58:33;;;;;;;0.10;0.10;;;7.50;99.90;;;;;;5003654;28;20154;-69
2022/04/20 05:00:59;;;;;;;0.10;0.10;;;7.50;99.90;;;;;;5005507;28;20044;-68
2022/04/20 05:03:25;;;;;;;0.10;0.10;;;7.50;99.90;;;;;;4999227;28;20393;-68
2022/04/20 05:05:51;;;;;;;0.10;0.10;;;7.40;99.90;;;;;;5007907;28;20433;-68
2022/04/20 05:08:17;;;;;;;0.10;0.10;;;7.40;99.90;;;;;;5012790;28;20045;-67
2022/04/20 05:10:43;;;;;;;0.10;0.10;;;7.40;99.90;;;;;;5008759;28;20049;-68
2022/04/20 05:13:08;;;;;;;0.10;0.10;;;7.40;99.90;;;;;;5009066;28;20446;-67
2022/04/20 05:15:34;;;;;;;0.10;0.10;;;7.40;99.90;;;;;;5006469;28;20030;-67
2022/04/20 05:18:01;;;;;;;0.10;0.10;;;7.30;99.90;;;;;;5010020;28;20041;-67
2022/04/20 05:20:26;;;;;;;1.77;1.67;;;7.20;99.90;;;;;;5008151;28;20037;-68
2022/04/20 05:22:53;;;;;;;0.10;0.10;;;7.30;99.90;;;;;;5003787;28;20045;-67
2022/04/20 05:25:19;;;;;;;0.10;0.10;;;7.30;99.90;;;;;;5010259;28;20037;-67
2022/04/20 05:27:44;;;;;;;0.10;0.10;;;7.40;99.90;;;;;;5007334;28;20022;-67
2022/04/20 05:30:15;;;;;;;0.10;0.10;;;7.30;99.90;;;;;;5005360;28;20477;-67
2022/04/20 05:32:42;;;;;;;0.10;0.10;;;7.30;99.90;;;;;;5005017;28;20028;-68
2022/04/20 05:35:08;;;;;;;0.10;0.10;;;7.30;99.90;;;;;;5005631;28;20021;-68
2022/04/20 05:43:03;;;;;;;0.40;0.40;;;7.20;99.90;;;;;;5000335;28;20037;-66
2022/04/20 05:45:29;;;;;;;0.10;0.10;;;7.20;99.90;;;;;;5010119;28;20084;-67
2022/04/20 05:47:54;;;;;;;0.10;0.10;;;7.30;99.90;;;;;;5011746;28;20450;-68
2022/04/20 05:50:20;;;;;;;0.10;0.10;;;7.30;99.90;;;;;;5007727;28;20097;-68
2022/04/20 05:52:46;;;;;;;0.60;0.60;;;7.30;99.90;;;;;;5002426;28;20033;-67
2022/04/20 05:55:11;;;;;;;0.10;0.10;;;7.40;99.90;;;;;;5007590;28;20456;-68
2022/04/20 05:57:37;;;;;;;1.00;1.00;;;7.50;99.90;;;;;;5008620;28;20117;-68
2022/04/20 06:00:04;;;;;;;0.10;0.10;;;7.60;99.90;;;;;;5009447;28;20385;-67
2022/04/20 06:02:33;;;;;;;0.10;0.10;;;7.70;99.90;;;;;;5003054;28;20481;-68
2022/04/20 06:05:00;;;;;;;0.10;0.10;;;7.70;99.90;;;;;;5009983;28;20034;-70
2022/04/20 06:07:26;;;;;;;0.10;0.10;;;7.70;99.90;;;;;;5005731;28;20014;-70
2022/04/20 06:09:51;;;;;;;0.17;0.17;;;7.80;99.90;;;;;;4995009;28;20033;-71
2022/04/20 06:12:17;;;;;;;0.10;0.10;;;7.80;99.90;;;;;;5009555;28;20444;-69
2022/04/20 06:14:42;;;;;;;0.10;0.10;;;7.90;99.90;;;;;;4999900;28;20087;-69
2022/04/20 06:17:08;;;;;;;0.10;0.10;;;9.10;99.90;;;;;;5011235;28;20018;-70
2022/04/20 06:19:34;;;;;;;0.10;0.10;;;8.00;99.90;;;;;;5004170;28;20501;-67
2022/04/20 06:21:59;;;;;;;0.10;0.10;;;8.10;99.90;;;;;;5002372;28;20060;-68
2022/04/20 06:24:25;;;;;;;0.10;0.10;;;8.10;99.90;;;;;;4999892;28;20555;-68
2022/04/20 06:26:51;;;;;;;0.10;0.10;;;8.30;99.90;;;;;;5008896;28;20053;-71
2022/04/20 06:29:16;;;;;;;0.40;0.40;;;8.40;99.90;;;;;;5007238;28;20030;-71
2022/04/20 06:31:44;;;;;;;0.10;0.10;;;8.50;99.90;;;;;;5008739;28;20037;-69
2022/04/20 06:34:10;;;;;;;0.20;0.20;;;8.60;99.90;;;;;;5005492;28;20099;-70
2022/04/20 06:36:36;;;;;;;0.10;0.10;;;8.70;99.90;;;;;;5006285;28;20505;-70
2022/04/20 06:39:01;;;;;;;0.10;0.10;;;8.80;99.90;;;;;;5008555;28;20139;-72
2022/04/20 06:41:27;;;;;;;0.30;0.30;;;8.80;99.90;;;;;;5008132;28;20369;-68
2022/04/20 06:43:53;;;;;;;0.10;0.10;;;8.90;99.90;;;;;;5002382;28;20545;-70
2022/04/20 06:46:18;;;;;;;7.47;6.22;;;9.00;99.90;;;;;;5004329;28;20487;-68
2022/04/20 06:48:44;;;;;;;0.17;0.17;;;9.00;99.90;;;;;;5003229;28;20038;-68
2022/04/20 06:51:09;;;;;;;2.17;0.85;;;9.00;99.90;;;;;;5008726;28;20029;-68
2022/04/20 06:59:03;;;;;;;0.10;0.10;;;9.10;99.90;;;;;;5010559;28;20449;-69
2022/04/20 07:01:29;;;;;;;0.10;0.10;;;9.00;99.90;;;;;;5002262;28;20030;-71
2022/04/20 07:03:54;;;;;;;0.10;0.10;;;9.20;99.90;;;;;;4995432;28;20030;-66
2022/04/20 07:06:20;;;;;;;0.10;0.10;;;9.30;99.90;;;;;;5008573;28;20405;-67
2022/04/20 07:08:46;;;;;;;0.10;0.10;;;9.30;99.90;;;;;;5021820;28;20064;-66
2022/04/20 07:11:13;;;;;;;0.10;0.10;;;9.20;99.90;;;;;;5003036;28;20022;-67
2022/04/20 07:13:38;;;;;;;0.10;0.10;;;9.20;99.90;;;;;;5010376;28;20025;-66
2022/04/20 07:16:04;;;;;;;0.10;0.10;;;9.20;99.90;;;;;;5009481;28;20030;-66
2022/04/20 07:18:30;;;;;;;0.60;0.60;;;9.20;99.90;;;;;;5010335;28;20382;-66
2022/04/20 07:20:56;;;;;;;0.10;0.10;;;9.30;99.90;;;;;;5007221;28;20160;-66
2022/04/20 07:23:21;;;;;;;0.30;0.30;;;9.40;99.90;;;;;;5008492;28;20030;-67
2022/04/20 07:25:47;;;;;;;0.10;0.10;;;9.50;99.90;;;;;;5009096;28;20030;-66
2022/04/20 07:28:13;;;;;;;0.10;0.10;;;9.60;99.40;;;;;;5006438;28;20524;-65
2022/04/20 07:30:38;;;;;;;0.10;0.10;;;9.60;98.80;;;;;;5009607;28;20018;-66
2022/04/20 07:33:05;;;;;;;0.10;0.10;;;9.60;97.90;;;;;;5009417;28;20705;-65
2022/04/20 07:35:31;;;;;;;0.10;0.10;;;9.50;98.90;;;;;;5011465;28;20080;-65
2022/04/20 07:37:57;;;;;;;0.10;0.10;;;9.60;99.80;;;;;;4996589;28;20034;-66
2022/04/20 07:40:23;;;;;;;0.10;0.10;;;9.70;99.90;;;;;;5009192;28;20032;-65
2022/04/20 07:42:56;;;;;;;0.10;0.10;;;9.90;99.00;;;;;;5005467;28;20096;-66
2022/04/20 07:45:26;;;;;;;0.10;0.10;;;10.00;96.20;;;;;;5008409;28;20025;-65
2022/04/20 07:47:56;;;;;;;0.10;0.10;;;10.00;95.90;;;;;;5006750;28;20026;-66
2022/04/20 07:50:25;;;;;;;0.10;0.10;;;10.20;94.40;;;;;;5007132;28;20018;-66
2022/04/20 07:53:01;;;;;;;0.10;0.10;;;10.20;94.30;;;;;;5008360;28;20029;-64
2022/04/20 07:55:32;;;;;;;0.10;0.10;;;10.10;95.10;;;;;;4998116;28;20251;-65
2022/04/20 07:58:01;;;;;;;0.10;0.10;;;10.10;95.60;;;;;;5003557;28;20019;-65
2022/04/20 08:00:27;;;;;;;0.10;0.10;;;10.20;95.30;;;;;;5005546;28;20064;-66
2022/04/20 08:03:14;;;;;;;0.10;0.10;;;10.30;94.70;;;;;;5001524;28;20026;-66
2022/04/20 08:05:41;;;;;;;0.30;0.30;;;10.30;94.60;;;;;;5009278;28;20025;-65
2022/04/20 08:08:08;;;;;;;0.10;0.10;;;10.40;95.00;;;;;;5007072;28;20036;-65
2022/04/20 08:10:34;;;;;;;0.22;0.22;;;10.50;93.20;;;;;;5006153;28;20034;-66
2022/04/20 08:12:59;;;;;;;0.30;0.30;;;10.60;93.90;;;;;;5007371;28;20077;-65
2022/04/20 08:15:25;;;;;;;0.10;0.10;;;10.80;93.00;;;;;;5007300;28;20092;-65
2022/04/20 08:17:51;;;;;;;0.10;0.10;;;10.80;92.10;;;;;;5000995;28;20038;-67
2022/04/20 08:20:16;;;;;;;0.10;0.10;;;10.90;91.60;;;;;;5006749;28;20037;-68
2022/04/20 08:22:43;;;;;;;0.10;0.10;;;10.80;91.80;;;;;;5007655;28;20544;-66
2022/04/20 08:25:10;;;;;;;0.10;0.10;;;10.80;91.70;;;;;;5001081;28;20106;-67
2022/04/20 08:27:37;;;;;;;0.55;0.55;;;10.90;91.60;;;;;;5010132;28;20040;-66
2022/04/20 08:30:07;;;;;;;0.10;0.10;;;11.00;90.70;;;;;;5012029;28;20077;-66
2022/04/20 08:32:33;;;;;;;0.10;0.10;;;10.90;90.90;;;;;;5012332;28;20014;-67
2022/04/20 08:34:59;;;;;;;0.10;0.10;;;11.10;91.00;;;;;;5008146;28;20076;-66
2022/04/20 08:37:25;;;;;;;0.10;0.10;;;11.10;90.80;;;;;;5006781;28;20495;-67
2022/04/20 08:39:53;;;;;;;0.10;0.10;;;11.20;90.20;;;;;;5007515;28;20096;-68
2022/04/20 08:42:21;;;;;;;0.38;0.38;;;11.30;89.70;;;;;;5008903;28;20102;-67
2022/04/20 08:44:50;;;;;;;0.10;0.10;;;11.20;89.10;;;;;;5010936;28;20042;-67
2022/04/20 08:47:21;;;;;;;0.57;0.57;;;11.20;88.90;;;;;;5009032;28;20038;-67
2022/04/20 08:49:49;;;;;;;0.10;0.10;;;11.30;88.80;;;;;;5010706;28;20053;-66
2022/04/20 08:52:37;;;;;;;0.20;0.20;;;11.30;87.30;;;;;;4996348;28;20026;-67
2022/04/20 08:55:07;;;;;;;0.10;0.10;;;11.40;87.30;;;;;;5009196;28;20105;-66
2022/04/20 08:57:34;;;;;;;0.10;0.10;;;11.50;85.10;;;;;;5010715;28;20100;-66
2022/04/20 09:00:04;;;;;;;0.10;0.10;;;11.50;83.00;;;;;;5007116;28;20022;-67
2022/04/20 09:02:31;;;;;;;0.10;0.10;;;11.60;81.60;;;;;;4993026;28;20543;-64
2022/04/20 09:04:56;;;;;;;0.10;0.10;;;11.70;80.60;;;;;;4992676;28;20062;-67
2022/04/20 09:07:24;;;;;;;0.10;0.10;;;11.80;79.20;;;;;;5016090;28;20085;-66
2022/04/20 09:09:50;;;;;;;0.00;0.00;;;11.90;76.40;;;;;;5023406;28;20029;-67
2022/04/20 09:12:18;;;;;;;0.10;0.10;;;11.90;74.80;;;;;;5007034;28;20026;-69
2022/04/20 09:14:50;;;;;;;0.10;0.10;;;11.80;74.40;;;;;;4994348;28;20081;-66
2022/04/20 09:17:20;;;;;;;0.10;0.10;;;11.90;74.20;;;;;;5003832;28;20065;-66
2022/04/20 09:19:49;;;;;;;0.10;0.10;;;11.80;72.10;;;;;;5007938;28;20038;-66
2022/04/20 09:22:29;;;;;;;0.10;0.10;;;12.00;71.40;;;;;;4999496;28;20053;-66
2022/04/20 09:25:11;;;;;;;0.10;0.10;;;12.00;69.30;;;;;;5005745;28;20029;-66
2022/04/20 09:27:41;;;;;;;0.10;0.10;;;12.00;69.70;;;;;;5012725;28;20149;-66
2022/04/20 09:30:13;;;;;;;0.10;0.10;;;12.20;68.70;;;;;;5007755;28;20025;-66
2022/04/20 09:32:49;;;;;;;0.10;0.10;;;12.30;67.60;;;;;;5009742;28;20026;-67
2022/04/20 09:35:19;;;;;;;0.10;0.10;;;12.30;65.70;;;;;;5003754;28;20026;-66
2022/04/20 09:37:45;;;;;;;0.10;0.10;;;12.40;66.70;;;;;;5005524;28;20112;-66
2022/04/20 09:40:13;;;;;;;0.10;0.10;;;12.60;66.20;;;;;;5011139;28;20053;-65
2022/04/20 09:43:02;;;;;;;0.10;0.10;;;12.70;64.70;;;;;;5010231;28;20504;-66
2022/04/20 09:45:28;;;;;;;0.10;0.10;;;12.70;64.20;;;;;;5006732;28;20051;-68
2022/04/20 09:50:40;;;;;;;0.10;0.10;;;12.80;60.50;;;;;;5008724;28;20040;-69
2022/04/20 09:53:07;;;;;;;0.10;0.10;;;12.90;60.10;;;;;;5007785;28;20022;-66
2022/04/20 09:55:38;;;;;;;0.10;0.10;;;12.80;59.40;;;;;;5009463;28;20026;-66
2022/04/20 09:58:24;;;;;;;0.05;0.05;;;12.70;59.40;;;;;;5011787;28;20014;-67
2022/04/20 10:00:51;;;;;;;0.10;0.10;;;12.60;58.80;;;;;;5006567;28;20030;-66
2022/04/20 10:03:24;;;;;;;0.10;0.10;;;12.70;58.90;;;;;;5011369;28;20069;-66
2022/04/20 10:05:51;;;;;;;0.10;0.10;;;12.70;56.00;;;;;;5024900;22;20055;-74
2022/04/20 10:08:20;;;;;;;0.10;0.10;;;12.70;57.00;;;;;;5011483;28;20026;-74
2022/04/20 10:10:52;;;;;;;0.10;0.10;;;12.80;57.20;;;;;;5016194;28;20018;-74
2022/04/20 10:13:18;;;;;;;0.10;0.10;;;13.10;56.70;;;;;;5008009;28;20116;-74
2022/04/20 10:16:06;;;;;;;0.10;0.10;;;13.30;56.70;;;;;;5009543;28;20041;-73
2022/04/20 10:18:34;;;;;;;0.10;0.10;;;13.60;56.20;;;;;;5015469;28;20489;-73
2022/04/20 10:21:03;;;;;;;0.10;0.10;;;13.40;55.90;;;;;;5009997;28;20165;-72
2022/04/20 10:23:29;;;;;;;0.10;0.10;;;13.50;56.10;;;;;;5022695;28;20032;-72
2022/04/20 10:25:57;;;;;;;0.10;0.10;;;13.80;56.20;;;;;;5010054;28;20079;-79
2022/04/20 10:28:28;;;;;;;0.10;0.10;;;13.70;55.10;;;;;;5008056;28;20022;-74
2022/04/20 10:31:12;;;;;;;0.10;0.10;;;13.50;55.50;;;;;;5010617;28;20025;-73
2022/04/20 10:33:39;;;;;;;;;;;13.70;55.60;;;;;;5003444;28;20033;-74
2022/04/20 10:36:09;;;;;;;0.10;0.10;;;13.70;55.40;;;;;;5000456;28;19932;-72
2022/04/20 10:38:35;;;;;;;1.65;1.55;;;13.70;55.50;;;;;;5002184;28;20037;-73
2022/04/20 10:41:09;;;;;;;0.10;0.10;;;13.70;55.10;;;;;;5002732;28;20034;-71
2022/04/20 10:43:38;;;;;;;0.10;0.10;;;13.70;55.10;;;;;;5002946;28;20037;-74
2022/04/20 10:46:16;;;;;;;0.10;0.10;;;13.60;54.10;;;;;;5006409;28;20046;-73
2022/04/20 10:49:24;;;;;;;0.10;0.10;;;13.70;53.60;;;;;;5008014;28;20056;-75
2022/04/20 10:51:45;;;;;;;0.10;0.10;;;13.70;53.10;;;;;;5012794;28;20046;-74
2022/04/20 10:54:29;;;;;;;0.10;0.10;;;13.80;52.70;;;;;;5004879;28;20025;-73
2022/04/20 10:57:01;;;;;;;0.00;0.00;;;13.70;52.30;;;;;;5010722;28;20033;-72
2022/04/20 10:59:27;;;;;;;0.10;0.10;;;13.80;51.90;;;;;;5016174;28;20022;-76
2022/04/20 11:02:01;;;;;;;0.10;0.10;;;13.90;51.40;;;;;;5004042;28;20026;-74
2022/04/20 11:04:34;;;;;;;;;;;13.90;51.60;;;;;;5008511;28;20485;-71
2022/04/20 11:06:59;;;;;;;0.10;0.10;;;14.00;51.30;;;;;;5015266;28;19982;-74
2022/04/20 11:09:45;;;;;;;0.10;0.10;;;14.20;50.70;;;;;;5023995;28;20434;-73
2022/04/20 11:21:07;;;;;;;0.08;0.08;;;13.90;50.90;;;;;;5003577;28;20133;-72
2022/04/20 11:24:05;;;;;;;0.10;0.10;;;14.30;51.00;;;;;;5003375;28;20463;-71
2022/04/20 11:26:39;;;;;;;0.10;0.10;;;14.30;49.90;;;;;;5004566;28;20040;-74
2022/04/20 11:29:10;;;;;;;;;;;14.40;48.90;;;;;;5014167;28;20033;-73
2022/04/20 11:31:48;;;;;;;0.20;0.20;;;14.50;49.00;;;;;;5011155;28;19913;-73
2022/04/20 11:34:16;;;;;;;0.10;0.10;;;14.40;48.10;;;;;;5002249;28;20037;-74
2022/04/20 11:36:44;;;;;;;0.10;0.10;;;14.50;48.00;;;;;;5008538;28;20109;-75
2022/04/20 11:39:15;;;;;;;0.43;0.43;;;14.30;47.60;;;;;;5006249;28;20064;-74
2022/04/20 11:41:46;;;;;;;0.10;0.10;;;14.50;47.90;;;;;;5009038;28;20025;-71
2022/04/20 11:44:25;;;;;;;0.10;0.10;;;14.60;48.80;;;;;;4992247;28;20437;-73
2022/04/20 11:46:54;;;;;;;0.10;0.10;;;14.50;49.40;;;;;;5006550;28;20029;-72
2022/04/20 11:49:21;;;;;;;0.10;0.10;;;14.50;49.10;;;;;;5004172;28;20145;-72
2022/04/20 11:51:57;;;;;;;0.10;0.10;;;14.80;48.60;;;;;;5006342;28;20022;-74
2022/04/20 11:54:24;;;;;;;0.10;0.10;;;14.70;47.80;;;;;;5014639;28;20116;-73
2022/04/20 11:56:50;;;;;;;0.10;0.10;;;14.50;47.90;;;;;;5009498;28;20026;-72
2022/04/20 11:59:33;;;;;;;0.10;0.10;;;14.30;48.00;;;;;;5015130;28;20113;-73
2022/04/20 12:01:59;;;;;;;0.30;0.30;;;14.30;48.50;;;;;;5001431;28;20065;-72
2022/04/20 12:04:28;;;;;;;0.25;0.25;;;14.50;47.60;;;;;;5028553;28;20319;-73
2022/04/20 12:06:59;;;;;;;0.10;0.10;;;14.50;48.60;;;;;;5024950;28;20132;-75
2022/04/20 12:09:30;;;;;;;0.10;0.10;;;14.40;48.70;;;;;;5025353;28;20161;-74
2022/04/20 12:12:01;;;;;;;0.10;0.10;;;14.50;47.90;;;;;;5022642;28;20018;-71
2022/04/20 12:14:34;;;;;;;0.10;0.10;;;14.50;47.50;;;;;;5013529;28;20033;-74
2022/04/20 12:17:06;;;;;;;0.10;0.10;;;14.60;47.50;;;;;;5016399;28;20076;-71
2022/04/20 12:19:32;;;;;;;0.10;0.10;;;14.70;47.70;;;;;;5023149;28;20061;-73
2022/04/20 12:22:06;;;;;;;0.10;0.10;;;14.70;47.30;;;;;;5015527;28;20069;-76
2022/04/20 12:24:32;;;;;;;0.10;0.10;;;14.60;47.10;;;;;;5018641;28;20116;-72
2022/04/20 12:26:58;;;;;;;0.10;0.10;;;14.60;48.00;;;;;;4999288;28;20116;-73
2022/04/20 12:29:28;;;;;;;0.10;0.10;;;14.70;48.20;;;;;;5021382;28;20037;-75
2022/04/20 12:31:54;;;;;;;0.10;0.10;;;14.90;47.60;;;;;;5013425;28;20325;-74
2022/04/20 12:34:21;;;;;;;0.98;0.98;;;15.10;46.60;;;;;;5012561;28;20022;-74
2022/04/20 12:36:59;;;;;;;0.10;0.10;;;15.10;46.00;;;;;;5013249;28;20050;-74
2022/04/20 12:39:30;;;;;;;0.10;0.10;;;15.10;46.10;;;;;;5014131;28;20036;-74
2022/04/20 12:42:07;;;;;;;0.10;0.10;;;15.40;45.50;;;;;;5014499;28;20053;-72
2022/04/20 12:44:35;;;;;;;0.10;0.10;;;15.50;45.00;;;;;;5004619;28;20042;-73
2022/04/20 12:47:21;;;;;;;0.10;0.10;;;15.70;44.20;;;;;;4994627;28;20029;-74
2022/04/20 12:50:11;;;;;;;0.00;0.00;;;16.30;44.00;;;;;;4998723;28;20124;-74
2022/04/20 12:52:37;;;;;;;0.00;0.00;;;17.80;42.80;;;;;;5020791;28;20025;-71
2022/04/20 12:55:10;;;;;;;0.10;0.10;;;19.80;40.00;;;;;;5016234;28;20018;-75
2022/04/20 13:03:16;;;;;;;0.00;0.00;;;22.10;35.80;;;;;;5005233;28;20038;-72
2022/04/20 13:05:43;;;;;;;0.00;0.00;;;22.60;35.60;;;;;;5013048;28;20026;-73
2022/04/20 13:08:12;;;;;;;0.00;0.00;;;23.30;35.10;;;;;;5020916;28;20030;-72
2022/04/20 13:10:42;;;;;;;0.00;0.00;;;24.00;34.80;;;;;;5029138;28;20025;-73
2022/04/20 13:13:08;;;;;;;0.00;0.00;;;23.90;34.80;;;;;;5021427;28;20500;-75
2022/04/20 13:15:34;;;;;;;0.00;0.00;;;24.20;33.30;;;;;;5028473;28;20034;-74
2022/04/20 13:18:01;;;;;;;0.00;0.00;;;24.70;32.70;;;;;;5025621;28;20702;-72
2022/04/20 13:20:28;;;;;;;0.00;0.00;;;24.50;32.60;;;;;;5013024;28;20102;-74
2022/04/20 13:22:55;;;;;;;0.00;0.00;;;25.00;31.90;;;;;;5012542;28;20105;-75
2022/04/20 13:28:05;;;;;;;0.00;0.00;;;24.60;31.90;;;;;;5007849;28;20137;-76
2022/04/20 13:30:36;;;;;;;0.00;0.00;;;24.50;31.90;;;;;;5003967;28;20034;-75
2022/04/20 13:33:12;;;;;;;0.00;0.00;;;25.20;31.40;;;;;;5003085;28;20041;-74